MPTO/PTY METAR and TAF weather

Enter ICAO airport designator
Station Type Date Time Source
MPTO METAR 2018/12/13 08:00 UTC NOAA

MPTO 130800Z 29003KT 9999 FEW020 23/22 Q1010 NOSIG


Station Type Date Time Source
MPTO Decoded METAR 2018/12/13 08:00 UTC NOAA

Tocumen, Panama (MPTO) 09-03N 079-22W
Dec 13, 2018 - 03:00 AM EST / 2018.12.13 0800 UTC
Wind: from the WNW (290 degrees) at 3 MPH (3 KT):0
Visibility: greater than 7 mile(s):0
Sky conditions: mostly clear
Temperature: 73 F (23 C)
Dew Point: 71 F (22 C)
Relative Humidity: 94%
Pressure (altimeter): 29.83 in. Hg (1010 hPa)
ob: MPTO 130800Z 29003KT 9999 FEW020 23/22 Q1010 NOSIG
cycle: 8

Station Type Date Time Source
MPTO TAF 2018/12/13 06:21 UTC NOAA

TAF COR TAF MPTO 130500Z 1306/1412 23004KT 9999 SCT020
TEMPO 1317/1321 02012KT


Example: see airport list